LIVM 192355Z AUTO VRB02KT //// 19/14 Q1026 LIVM 192255Z AUTO VRB02KT //// 19/13 Q1026 LIVM 192155Z AUTO 13004KT 090V160 //// 20/12 Q1026 LIVM 192055Z AUTO 13004KT 100V180 //// 20/12 Q1025 LIVM 191955Z AUTO 14005KT 080V200 //// 21/11 Q1025 LIVM 191855Z AUTO 13006KT 090V160 //// 22/11 Q1025 LIVM 191755Z AUTO 13006KT 100V170 //// 23/10 Q1026 LIVM 191655Z AUTO 12009KT //// 24/10 Q1026 LIVM 191555Z AUTO 12010KT //// 24/10 Q1026 LIVM 191455Z AUTO 11010KT //// 25/11 Q1027 LIVM 191355Z 11008KT CAVOK 24/13 Q1027 RMK SKC QUK 1 QUL 0 VIS MAR 12 KM VIS MIN 9999 LIVM 191255Z 11010KT CAVOK 24/13 Q1027 RMK SKC QUK 1 QUL 0 VIS MAR 12 KM VIS MIN 9999 LIVM 191155Z 11007KT CAVOK 23/13 Q1027 RMK SKC QUK 1 QUL 0 VIS MAR 12 KM VIS MIN 9999 LIVM 191055Z 11007KT 060V130 CAVOK 23/14 Q1027 RMK SKC QUK 1 QUL 0 VIS MAR 12 KM VIS MIN 9999 LIVM 190955Z 12007KT 090V150 CAVOK 22/14 Q1027 RMK SKC QUK 1 QUL 0 VIS MAR 12 KM VIS MIN 9999 LIVM 190855Z 11005KT 080V140 CAVOK 21/14 Q1027 RMK SKC QUK 1 QUL 0 VIS MAR 12 KM VIS MIN 9999 LIVM 190755Z 11005KT 080V150 CAVOK 19/11 Q1027 RMK SKC QUK 1 QUL 0 VIS MAR 12 KM VIS MIN 9999 LIVM 190655Z VRB03KT CAVOK 17/12 Q1026 RMK SKC QUK 1 QUL 0 VIS MAR 12 KM VIS MIN 9999 LIVM 190555Z VRB01KT CAVOK 19/13 Q1026 RMK SKC QUK 1 QUL 0 VIS MAR 12 KM VIS MIN 9999 LIVM 190455Z AUTO VRB02KT //// 19/12 Q1025 LIVM 190355Z AUTO VRB02KT //// 20/11 Q1025 LIVM 190255Z AUTO 09011KT //// 20/11 Q1025 LIVM 190155Z AUTO 10012KT //// 20/12 Q1025 LIVM 190055Z AUTO 10013KT //// 20/11 Q1025 LIVM 182355Z AUTO 09012KT //// 20/12 Q1025 LIVM 182255Z AUTO 10010KT //// 18/14 Q1025 LIVM 182155Z AUTO 10010KT //// 19/15 Q1024 LIVM 182055Z AUTO 13001KT //// 20/15 Q1024 LIVM 181955Z AUTO VRB01KT //// 22/14 Q1023 LIVM 181855Z AUTO VRB01KT //// 23/14 Q1023 LIVM 181755Z AUTO VRB03KT //// 24/14 Q1023 LIVM 181655Z AUTO 14004KT 070V200 //// 24/14 Q1023 LIVM 181555Z AUTO 13005KT 100V170 //// 24/13 Q1023 LIVM 181455Z AUTO 12008KT //// 24/14 Q1023 LIVM 181355Z 12006KT CAVOK 24/14 Q1023 RMK SKC QUK 2 QUL 1 E VIS MAR 12 KM VIS MIN 9999 LIVM 181255Z 12006KT 090V160 CAVOK 24/14 Q1023 RMK FEW FEW060 QUK 2 QUL 1 E VIS MAR 12 KM VIS MIN 9999

METAR Messwerte "POINT MARINA/RAV" LIVM

Zurück zur Übersicht

Ortsname
Ländercode / m ü. NN
Zeit Temperatur Taupunkt Rel.
Luftfeuchte
Luftdruck:
Altimeter
NN
Station
Wind in Beaufort
(Knoten)
Sichtweite
(Meter)
Wolken
(Meter über Grund)
Wettererscheinung
POINT MARINA/RAV
IT 6
Fr 20.05. 01:55191473 %1026
1026
1025
Uml 1 (2)   
POINT MARINA/RAV
IT 6
Fr 20.05. 00:55191368 %1026
1026
1025
Uml 1 (2)   
POINT MARINA/RAV
IT 6
Do 19.05. 23:55201260 %1026
1026
1025
SO 2 (4)
O - SSO
   
POINT MARINA/RAV
IT 6
Do 19.05. 22:55201260 %1025
1025
1024
SO 2 (4)
O - S
   
POINT MARINA/RAV
IT 6
Do 19.05. 21:55211153 %1025
1025
1024
SO 2 (5)
O - SSW
   
POINT MARINA/RAV
IT 6
Do 19.05. 20:55221150 %1025
1025
1024
SO 2 (6)
O - SSO
   
POINT MARINA/RAV
IT 6
Do 19.05. 19:55231044 %1026
1026
1025
SO 2 (6)
O - S
   
POINT MARINA/RAV
IT 6
Do 19.05. 18:55241041 %1026
1026
1025
OSO 3 (9)   
POINT MARINA/RAV
IT 6
Do 19.05. 17:55241041 %1026
1026
1025
OSO 3 (10)   
POINT MARINA/RAV
IT 6
Do 19.05. 16:55251141 %1027
1027
1026
OSO 3 (10)   
POINT MARINA/RAV
IT 6
Do 19.05. 15:55241350 %1027
1027
1026
OSO 3 (8)>= 10000Nicht signifikant 
POINT MARINA/RAV
IT 6
Do 19.05. 14:55241350 %1027
1027
1026
OSO 3 (10)>= 10000Nicht signifikant 
POINT MARINA/RAV
IT 6
Do 19.05. 13:55231353 %1027
1027
1026
OSO 3 (7)>= 10000Nicht signifikant 
POINT MARINA/RAV
IT 6
Do 19.05. 12:55231457 %1027
1027
1026
OSO 3 (7)
ONO - SO
>= 10000Nicht signifikant 
POINT MARINA/RAV
IT 6
Do 19.05. 11:55221460 %1027
1027
1026
OSO 3 (7)
O - SSO
>= 10000Nicht signifikant 
POINT MARINA/RAV
IT 6
Do 19.05. 10:55211464 %1027
1027
1026
OSO 2 (5)
O - SO
>= 10000Nicht signifikant 
POINT MARINA/RAV
IT 6
Do 19.05. 09:55191160 %1027
1027
1026
OSO 2 (5)
O - SSO
>= 10000Nicht signifikant 
POINT MARINA/RAV
IT 6
Do 19.05. 08:55171272 %1026
1026
1025
Uml 2 (3)>= 10000Nicht signifikant 
POINT MARINA/RAV
IT 6
Do 19.05. 07:55191368 %1026
1026
1025
Uml 1 (1)>= 10000Nicht signifikant 
POINT MARINA/RAV
IT 6
Do 19.05. 06:55191264 %1025
1025
1024
Uml 1 (2)   
POINT MARINA/RAV
IT 6
Do 19.05. 05:55201156 %1025
1025
1024
Uml 1 (2)   
POINT MARINA/RAV
IT 6
Do 19.05. 04:55201156 %1025
1025
1024
O 4 (11)   
POINT MARINA/RAV
IT 6
Do 19.05. 03:55201260 %1025
1025
1024
O 4 (12)   
POINT MARINA/RAV
IT 6
Do 19.05. 02:55201156 %1025
1025
1024
O 4 (13)   
POINT MARINA/RAV
IT 6
Do 19.05. 01:55201260 %1025
1025
1024
O 4 (12)   
POINT MARINA/RAV
IT 6
Do 19.05. 00:55181477 %1025
1025
1024
O 3 (10)   
POINT MARINA/RAV
IT 6
Mi 18.05. 23:55191578 %1024
1024
1023
O 3 (10)   
POINT MARINA/RAV
IT 6
Mi 18.05. 22:55201573 %1024
1024
1023
SO 1 (1)   
POINT MARINA/RAV
IT 6
Mi 18.05. 21:55221460 %1023
1023
1022
Uml 1 (1)   
POINT MARINA/RAV
IT 6
Mi 18.05. 20:55231457 %1023
1023
1022
Uml 1 (1)   
POINT MARINA/RAV
IT 6
Mi 18.05. 19:55241454 %1023
1023
1022
Uml 2 (3)   
POINT MARINA/RAV
IT 6
Mi 18.05. 18:55241454 %1023
1023
1022
SO 2 (4)
ONO - SSW
   
POINT MARINA/RAV
IT 6
Mi 18.05. 17:55241350 %1023
1023
1022
SO 2 (5)
O - S
   
POINT MARINA/RAV
IT 6
Mi 18.05. 16:55241454 %1023
1023
1022
OSO 3 (8)   
POINT MARINA/RAV
IT 6
Mi 18.05. 15:55241454 %1023
1023
1022
OSO 2 (6)>= 10000Nicht signifikant 
POINT MARINA/RAV
IT 6
Mi 18.05. 14:55241454 %1023
1023
1022
OSO 2 (6)
O - SSO
>= 10000Nicht signifikant 

Altimeter: Einstellung am Altimeter (Höhenmesser), die Höhe 0 muss auf diesen Luftdruckwert zeigen, damit das Gerät die Stationshöhe richtig anzeigt.

NN: Luftdruck reduziert auf "Normal Null", auf Meereshöhe, dieser von der Temperatur abhängige Wert wird bisweilen unkorrekt einfach als "Luftdruck" bezeichnet. Eigentlich nur eine fiktive Größe, die es erlaubt, Stationen auf unterschiedlichen Höhen miteinander zu vergleichen.

Station: Realer Luftdruck an der Station.